createdAt,value
2019-05-20T00:00:52.948Z,1.67
2019-05-20T00:05:57.124Z,1.83
2019-05-20T00:11:01.347Z,1.73
2019-05-20T00:16:05.768Z,1.70
2019-05-20T00:21:10.783Z,1.57
2019-05-20T00:26:17.766Z,1.83
2019-05-20T00:31:21.899Z,1.57
2019-05-20T00:36:26.044Z,1.50
2019-05-20T00:41:30.169Z,1.97
2019-05-20T00:46:35.785Z,1.60
2019-05-20T00:51:40.305Z,1.50
2019-05-20T00:56:44.541Z,1.50
2019-05-20T01:01:48.833Z,1.60
2019-05-20T01:06:53.260Z,1.60
2019-05-20T01:11:57.640Z,1.83
2019-05-20T01:17:02.756Z,1.53
2019-05-20T01:22:07.608Z,1.40
2019-05-20T01:27:12.800Z,1.40
2019-05-20T01:32:17.353Z,1.60
2019-05-20T01:37:21.472Z,1.60
2019-05-20T01:42:25.625Z,1.47
2019-05-20T01:47:29.760Z,1.20
2019-05-20T01:52:33.975Z,1.53
2019-05-20T01:57:38.807Z,1.43
2019-05-20T02:02:43.051Z,1.30
2019-05-20T02:07:48.249Z,1.20
2019-05-20T02:12:53.192Z,1.23
2019-05-20T02:17:57.401Z,1.20
2019-05-20T02:23:16.618Z,1.23
2019-05-20T02:28:20.769Z,1.60
2019-05-20T02:33:26.962Z,1.47
2019-05-20T02:38:35.609Z,1.53
2019-05-20T02:43:39.752Z,1.10
2019-05-20T02:48:46.144Z,1.47
2019-05-20T02:53:50.262Z,1.60
2019-05-20T02:58:55.081Z,1.60
2019-05-20T03:04:10.575Z,1.40
2019-05-20T03:09:05.367Z,1.57
2019-05-20T03:14:09.570Z,1.67
2019-05-20T03:19:16.795Z,1.60
2019-05-20T03:24:20.651Z,1.70
2019-05-20T03:29:25.139Z,1.60
2019-05-20T03:34:54.173Z,1.73
2019-05-20T03:39:37.755Z,1.47
2019-05-20T03:44:41.872Z,1.60
2019-05-20T03:49:47.307Z,1.70
2019-05-20T03:54:53.284Z,1.80
2019-05-20T03:59:59.248Z,1.80
2019-05-20T04:05:04.564Z,1.77
2019-05-20T04:10:10.837Z,1.77
2019-05-20T04:15:14.947Z,2.00
2019-05-20T04:20:19.120Z,1.87
2019-05-20T04:25:23.550Z,2.03
2019-05-20T04:30:30.350Z,2.73
2019-05-20T04:35:34.459Z,2.53
2019-05-20T04:40:38.880Z,2.27
2019-05-20T04:45:43.240Z,2.40
2019-05-20T04:50:47.587Z,2.30
2019-05-20T04:55:51.784Z,2.63
2019-05-20T05:00:58.862Z,2.97
2019-05-20T05:06:03.048Z,3.97
2019-05-20T05:11:08.654Z,4.50
2019-05-20T05:16:12.883Z,3.93
2019-05-20T05:21:18.423Z,5.70
2019-05-20T05:26:22.588Z,5.97
2019-05-20T05:31:26.958Z,6.90
2019-05-20T05:36:31.313Z,7.53
2019-05-20T05:41:35.907Z,8.83
2019-05-20T05:46:41.644Z,8.73
2019-05-20T05:51:45.764Z,8.17
2019-05-20T05:56:50.139Z,8.60
2019-05-20T06:01:54.249Z,8.27
2019-05-20T06:07:00.223Z,8.77
2019-05-20T06:12:05.320Z,8.03
2019-05-20T06:17:09.492Z,9.13
2019-05-20T06:22:14.610Z,8.97
2019-05-20T06:27:18.915Z,7.97
2019-05-20T06:32:23.185Z,8.03
2019-05-20T06:37:29.047Z,8.07
2019-05-20T06:42:33.236Z,8.27
2019-05-20T06:47:37.383Z,8.67
2019-05-20T06:52:41.833Z,8.60
2019-05-20T06:57:45.950Z,8.03
2019-05-20T07:02:52.104Z,9.47
2019-05-20T07:07:57.778Z,9.23
2019-05-20T07:13:02.130Z,8.57
2019-05-20T07:18:07.498Z,8.53
2019-05-20T07:23:11.813Z,8.57
2019-05-20T07:28:16.104Z,9.83
2019-05-20T07:33:20.273Z,10.37
2019-05-20T07:38:24.394Z,8.10
2019-05-20T07:43:28.606Z,7.70
2019-05-20T07:48:40.225Z,8.87
2019-05-20T07:53:48.152Z,8.90
2019-05-20T07:58:54.408Z,9.23
2019-05-20T08:04:06.080Z,9.67
2019-05-20T08:09:20.889Z,8.80
2019-05-20T08:14:27.503Z,8.57
2019-05-20T08:19:39.240Z,8.90
2019-05-20T08:24:43.912Z,8.77
2019-05-20T08:29:48.090Z,7.93
2019-05-20T08:34:52.227Z,7.43
2019-05-20T08:39:56.605Z,7.03
2019-05-20T08:45:00.882Z,6.93
2019-05-20T08:50:09.842Z,6.67
2019-05-20T08:55:11.690Z,6.60
2019-05-20T09:00:23.498Z,6.20
2019-05-20T09:05:29.049Z,6.90
2019-05-20T09:10:33.211Z,6.90
2019-05-20T09:15:39.832Z,6.33
2019-05-20T09:20:43.984Z,6.70
2019-05-20T09:25:48.264Z,6.53
2019-05-20T09:30:53.853Z,6.73
2019-05-20T09:35:58.324Z,6.47
2019-05-20T09:41:08.080Z,6.50
2019-05-20T09:46:14.186Z,6.70
2019-05-20T09:51:18.345Z,6.77
2019-05-20T09:56:22.762Z,5.93
2019-05-20T10:01:27.424Z,6.17
2019-05-20T10:06:33.173Z,5.17
2019-05-20T10:11:37.573Z,5.97
2019-05-20T10:16:42.219Z,5.87
2019-05-20T10:21:47.832Z,5.50
2019-05-20T10:26:52.009Z,7.33
2019-05-20T10:31:56.728Z,7.30
2019-05-20T10:37:00.871Z,8.33
2019-05-20T10:42:06.716Z,8.57
2019-05-20T10:47:11.114Z,8.97
2019-05-20T10:52:15.341Z,10.73
2019-05-20T10:57:22.913Z,8.37
2019-05-20T11:02:31.255Z,7.87
2019-05-20T11:07:34.529Z,9.07
2019-05-20T11:12:38.759Z,8.90
2019-05-20T11:17:42.921Z,9.23
2019-05-20T11:23:00.864Z,8.40
2019-05-20T11:28:02.824Z,9.90
2019-05-20T11:33:08.066Z,8.40
2019-05-20T11:38:12.565Z,9.10
2019-05-20T11:43:17.848Z,11.07
2019-05-20T11:48:22.207Z,9.80
2019-05-20T11:53:26.359Z,9.77
2019-05-20T11:58:31.290Z,10.23
2019-05-20T12:03:40.228Z,10.40
2019-05-20T12:08:41.797Z,9.40
2019-05-20T12:13:46.111Z,9.67
2019-05-20T12:18:50.498Z,10.70
2019-05-20T12:23:54.634Z,8.33
2019-05-20T12:29:02.836Z,8.27
2019-05-20T12:34:07.209Z,9.23
2019-05-20T12:39:16.035Z,8.63
2019-05-20T12:44:20.413Z,9.27
2019-05-20T12:49:25.206Z,11.47
2019-05-20T12:54:29.394Z,9.37
2019-05-20T12:59:35.629Z,10.13
2019-05-20T13:04:40.021Z,10.27
2019-05-20T13:09:47.619Z,8.70
2019-05-20T13:14:53.024Z,8.97
2019-05-20T13:19:57.165Z,9.70
2019-05-20T13:25:02.718Z,9.90
2019-05-20T13:30:07.374Z,10.30
2019-05-20T13:35:11.605Z,10.53
2019-05-20T13:40:17.023Z,11.17
2019-05-20T13:45:21.583Z,13.03
2019-05-20T13:50:25.803Z,12.47
2019-05-20T13:55:30.200Z,14.10
2019-05-20T14:00:34.439Z,13.53
2019-05-20T14:05:38.612Z,15.23
2019-05-20T14:10:42.818Z,13.57
2019-05-20T14:15:47.193Z,12.23
2019-05-20T14:20:51.698Z,15.77
2019-05-20T14:25:56.595Z,15.00
2019-05-20T14:31:05.461Z,15.57
2019-05-20T14:36:08.677Z,15.80
2019-05-20T14:41:21.475Z,14.97
2019-05-20T14:46:20.002Z,13.67
2019-05-20T14:51:24.667Z,15.13
2019-05-20T14:56:30.279Z,14.20
2019-05-20T15:01:36.241Z,13.80
2019-05-20T15:06:40.381Z,14.30
2019-05-20T15:11:44.807Z,14.70
2019-05-20T15:16:50.514Z,14.40
2019-05-20T15:21:55.923Z,14.37
2019-05-20T15:27:00.199Z,13.57
2019-05-20T15:32:04.409Z,12.07
2019-05-20T15:37:08.824Z,13.07
2019-05-20T15:42:13.263Z,13.77
2019-05-20T15:47:18.897Z,14.40
2019-05-20T15:52:23.733Z,13.67
2019-05-20T15:57:27.861Z,12.20
2019-05-20T16:02:32.244Z,13.67
2019-05-20T16:07:37.376Z,13.13
2019-05-20T16:12:41.834Z,14.10
2019-05-20T16:17:48.488Z,14.00
2019-05-20T16:22:52.530Z,14.53
2019-05-20T16:27:56.689Z,16.40
2019-05-20T16:33:00.898Z,15.50
2019-05-20T16:38:06.073Z,15.97
2019-05-20T16:43:10.543Z,16.90
2019-05-20T16:48:14.921Z,13.77
2019-05-20T16:53:19.046Z,14.37
2019-05-20T16:58:27.864Z,13.87
2019-05-20T17:03:30.404Z,15.10
2019-05-20T17:08:34.640Z,15.63
2019-05-20T17:13:38.824Z,14.80
2019-05-20T17:18:43.177Z,13.77
2019-05-20T17:23:47.550Z,12.57
2019-05-20T17:28:52.895Z,14.00
2019-05-20T17:33:57.114Z,13.73
2019-05-20T17:39:10.055Z,13.43
2019-05-20T17:44:14.757Z,13.07
2019-05-20T17:49:18.967Z,12.80
2019-05-20T17:54:24.899Z,13.33
2019-05-20T17:59:29.254Z,13.17
2019-05-20T18:04:33.662Z,12.40
2019-05-20T18:09:42.028Z,12.20
2019-05-20T18:14:51.532Z,13.00
2019-05-20T18:19:57.348Z,12.03
2019-05-20T18:25:02.767Z,11.63
2019-05-20T18:30:08.361Z,12.57
2019-05-20T18:35:12.571Z,14.60
2019-05-20T18:40:16.789Z,12.43
2019-05-20T18:45:20.920Z,13.97
2019-05-20T18:50:26.480Z,13.13
2019-05-20T18:55:34.309Z,15.10
2019-05-20T19:00:36.803Z,15.40
2019-05-20T19:05:41.235Z,15.23
2019-05-20T19:10:45.416Z,14.77
2019-05-20T19:15:49.891Z,14.07
2019-05-20T19:20:55.220Z,13.57
2019-05-20T19:26:00.901Z,14.43
2019-05-20T19:31:07.946Z,15.63
2019-05-20T19:36:12.000Z,15.03
2019-05-20T19:41:19.940Z,14.97
2019-05-20T19:46:24.334Z,16.37
2019-05-20T19:51:30.701Z,13.20
2019-05-20T19:56:35.438Z,14.93
2019-05-20T20:01:39.615Z,16.07
2019-05-20T20:06:44.070Z,15.13
2019-05-20T20:11:48.507Z,16.43
2019-05-20T20:16:52.873Z,17.03
2019-05-20T20:21:56.998Z,16.27
2019-05-20T20:27:01.774Z,16.43
2019-05-20T20:32:06.248Z,17.00
2019-05-20T20:37:11.049Z,17.90
2019-05-20T20:42:15.630Z,16.77
2019-05-20T20:47:21.412Z,18.17
2019-05-20T20:52:26.036Z,20.07
2019-05-20T20:57:35.646Z,18.73
2019-05-20T21:02:52.939Z,19.27
2019-05-20T21:07:51.509Z,19.30
2019-05-20T21:12:54.155Z,20.40
2019-05-20T21:17:58.288Z,18.73
2019-05-20T21:23:03.979Z,18.13
2019-05-20T21:28:08.140Z,17.37
2019-05-20T21:33:12.517Z,19.37
2019-05-20T21:38:16.891Z,18.97
2019-05-20T21:43:22.999Z,18.73
2019-05-20T21:48:27.411Z,17.37
2019-05-20T21:53:31.766Z,18.03
2019-05-20T21:58:36.425Z,19.13
2019-05-20T22:03:41.708Z,18.53
2019-05-20T22:08:47.944Z,17.03
2019-05-20T22:13:52.605Z,17.27
2019-05-20T22:18:59.182Z,16.70
2019-05-20T22:24:05.679Z,17.10
2019-05-20T22:29:10.899Z,14.97
2019-05-20T22:34:15.075Z,14.83
2019-05-20T22:39:20.396Z,16.37
2019-05-20T22:44:25.653Z,13.90
2019-05-20T22:49:33.205Z,15.00
2019-05-20T22:54:39.022Z,14.27
2019-05-20T22:59:43.152Z,13.87
2019-05-20T23:04:47.705Z,13.40
2019-05-20T23:09:54.146Z,11.03
2019-05-20T23:14:58.280Z,11.57
2019-05-20T23:20:02.491Z,11.37
2019-05-20T23:25:06.626Z,11.03
2019-05-20T23:30:11.125Z,10.83
2019-05-20T23:35:15.559Z,9.30
2019-05-20T23:40:19.670Z,10.80
2019-05-20T23:45:23.797Z,10.47
2019-05-20T23:50:28.247Z,10.60
2019-05-20T23:55:32.395Z,9.17
